Time;durP1;ratioP1;P1;durP2;ratioP2;P2;SDS_P1;SDS_P2;PMS_P1;PMS_P2;Temp;Humidity;BMP_temperature;BMP_pressure;BME280_temperature;BME280_humidity;BME280_pressure;Samples;Min_cycle;Max_cycle;Signal;HPM_P1;HPM_P2
2023/03/27 00:00:49;;;;;;;19.93;13.23;;;8.40;99.90;;;;;;5077261;28;20224;-65
2023/03/27 00:03:39;;;;;;;25.90;13.63;;;8.30;99.90;;;;;;5077123;28;20215;-65
2023/03/27 00:06:29;;;;;;;19.73;13.20;;;8.30;99.90;;;;;;5057829;28;20223;-64
2023/03/27 00:09:18;;;;;;;25.13;13.48;;;8.40;99.90;;;;;;5064473;28;20670;-62
2023/03/27 00:12:07;;;;;;;23.80;13.67;;;8.50;99.90;;;;;;5079455;28;20230;-63
2023/03/27 00:14:56;;;;;;;20.63;13.20;;;8.40;99.90;;;;;;5085693;28;20226;-64
2023/03/27 00:17:50;;;;;;;24.70;14.00;;;8.40;99.90;;;;;;5064074;28;20640;-65
2023/03/27 00:20:41;;;;;;;21.83;14.50;;;8.30;99.90;;;;;;5074372;28;20318;-64
2023/03/27 00:23:31;;;;;;;21.88;13.90;;;8.30;99.90;;;;;;5078292;28;20234;-66
2023/03/27 00:26:20;;;;;;;21.90;14.20;;;8.30;99.90;;;;;;5052044;28;20224;-67
2023/03/27 00:29:09;;;;;;;21.35;13.40;;;8.20;99.90;;;;;;5067008;28;20234;-66
2023/03/27 00:31:58;;;;;;;20.80;13.43;;;8.10;99.90;;;;;;5059835;28;20261;-67
2023/03/27 00:34:47;;;;;;;22.70;14.10;;;8.20;99.90;;;;;;5063670;28;20583;-67
2023/03/27 00:37:38;;;;;;;25.37;13.80;;;8.20;99.90;;;;;;5056113;28;20274;-66
2023/03/27 00:40:26;;;;;;;20.75;13.65;;;8.10;99.90;;;;;;5054315;28;20242;-67
2023/03/27 00:43:20;;;;;;;22.83;14.20;;;8.10;99.90;;;;;;5052777;28;20338;-66
2023/03/27 00:46:38;;;;;;;21.57;13.50;;;8.10;99.90;;;;;;5059792;28;20970;-65
2023/03/27 00:49:31;;;;;;;21.58;13.18;;;8.10;99.90;;;;;;5066035;28;20250;-67
2023/03/27 00:52:20;;;;;;;22.27;13.17;;;8.20;99.90;;;;;;5068497;28;20465;-66
2023/03/27 00:55:14;;;;;;;18.05;11.27;;;8.20;99.90;;;;;;5083014;28;20216;-66
2023/03/27 00:58:09;;;;;;;17.33;12.17;;;8.20;99.90;;;;;;5049617;28;20230;-66
2023/03/27 01:00:58;;;;;;;20.87;12.70;;;8.20;99.90;;;;;;5063862;28;20230;-66
2023/03/27 01:03:50;;;;;;;18.50;12.00;;;8.20;99.90;;;;;;5048920;28;20217;-66
2023/03/27 01:06:40;;;;;;;18.48;12.10;;;8.20;99.90;;;;;;5076651;28;20215;-65
2023/03/27 01:09:30;;;;;;;18.80;12.77;;;8.20;99.90;;;;;;5066080;28;20219;-67
2023/03/27 01:12:33;;;;;;;20.37;12.50;;;8.10;99.90;;;;;;5065411;28;20234;-67
2023/03/27 01:15:32;;;;;;;20.50;12.00;;;8.10;99.90;;;;;;5064815;28;20228;-65
2023/03/27 01:18:36;;;;;;;18.97;12.60;;;8.20;99.90;;;;;;5056749;28;20310;-66
2023/03/27 01:22:04;;;;;;;18.93;12.03;;;8.10;99.90;;;;;;5058383;28;20250;-66
2023/03/27 01:25:32;;;;;;;20.93;11.77;;;8.10;99.90;;;;;;5083062;27;20269;-66
2023/03/27 01:28:35;;;;;;;20.57;11.77;;;7.90;99.90;;;;;;5074388;28;20222;-68
2023/03/27 01:31:43;;;;;;;17.30;11.80;;;8.00;99.90;;;;;;5043285;28;20228;-67
2023/03/27 01:34:56;;;;;;;22.23;12.77;;;8.00;99.90;;;;;;5051055;28;20314;-67
2023/03/27 01:38:14;;;;;;;19.97;12.80;;;8.00;99.90;;;;;;5051472;28;20251;-65
2023/03/27 01:41:09;;;;;;;17.93;12.33;;;8.00;99.90;;;;;;5065664;28;20224;-66
2023/03/27 01:44:02;;;;;;;20.07;12.17;;;7.90;99.90;;;;;;5038970;28;20282;-65
2023/03/27 01:46:58;;;;;;;20.17;13.13;;;7.80;99.90;;;;;;5045254;28;20270;-65
2023/03/27 01:49:54;;;;;;;19.67;13.47;;;7.70;99.90;;;;;;5059725;28;20369;-66
2023/03/27 01:52:47;;;;;;;18.60;12.33;;;7.60;99.90;;;;;;5072212;28;20241;-65
2023/03/27 01:55:42;;;;;;;19.23;13.10;;;7.50;99.90;;;;;;5063799;28;20246;-66
2023/03/27 01:58:45;;;;;;;21.03;13.57;;;7.60;99.90;;;;;;5060963;28;20775;-66
2023/03/27 02:01:38;;;;;;;21.10;14.47;;;7.50;99.90;;;;;;5060507;28;20568;-65
2023/03/27 02:04:33;;;;;;;19.97;14.20;;;7.50;99.90;;;;;;5059728;28;20225;-64
2023/03/27 02:07:31;;;;;;;22.57;14.03;;;7.30;99.90;;;;;;5082221;28;20230;-66
2023/03/27 02:10:26;;;;;;;20.73;13.70;;;7.40;99.90;;;;;;5059983;28;20224;-65
2023/03/27 02:13:20;;;;;;;24.10;14.83;;;7.50;99.90;;;;;;5054655;28;20230;-65
2023/03/27 02:16:17;;;;;;;20.17;13.77;;;7.60;99.90;;;;;;5053996;28;20227;-67
2023/03/27 02:19:13;;;;;;;22.13;13.50;;;7.60;99.90;;;;;;5046410;28;20307;-65
2023/03/27 02:22:02;;;;;;;23.13;14.50;;;7.70;99.90;;;;;;5057506;28;20746;-66
2023/03/27 02:25:04;;;;;;;22.43;14.83;;;7.70;99.90;;;;;;5080108;28;20222;-65
2023/03/27 02:28:04;;;;;;;22.10;14.70;;;7.70;99.90;;;;;;5076121;28;20234;-65
2023/03/27 02:31:00;;;;;;;21.23;15.30;;;7.50;99.90;;;;;;5068676;28;20455;-65
2023/03/27 02:34:38;;;;;;;20.50;14.17;;;7.30;99.90;;;;;;5057372;28;20774;-65
2023/03/27 02:37:38;;;;;;;22.73;14.90;;;7.20;99.90;;;;;;5058649;28;20222;-65
2023/03/27 02:40:57;;;;;;;27.87;15.03;;;7.40;99.90;;;;;;5079578;28;20333;-65
2023/03/27 02:44:13;;;;;;;26.80;15.83;;;7.40;99.90;;;;;;5065029;28;20270;-64
2023/03/27 02:47:22;;;;;;;30.00;15.13;;;7.30;99.90;;;;;;5043868;28;20521;-65
2023/03/27 02:50:18;;;;;;;29.27;14.33;;;7.30;99.90;;;;;;5053874;28;20228;-63
2023/03/27 02:53:11;;;;;;;21.53;14.27;;;7.50;99.90;;;;;;5081228;28;20250;-64
2023/03/27 02:56:03;;;;;;;24.77;14.57;;;7.50;99.90;;;;;;5069130;28;20214;-65
2023/03/27 02:58:58;;;;;;;16.93;11.40;;;7.40;99.90;;;;;;5061562;28;20221;-65
2023/03/27 03:01:57;;;;;;;15.13;11.27;;;7.50;99.90;;;;;;5057376;28;20266;-64
2023/03/27 03:04:56;;;;;;;17.00;11.50;;;7.50;99.90;;;;;;5049316;28;20221;-66
2023/03/27 03:07:57;;;;;;;14.87;10.63;;;7.40;99.90;;;;;;5049830;28;20219;-65
2023/03/27 03:10:46;;;;;;;17.60;10.60;;;7.30;99.90;;;;;;5068769;28;20223;-66
2023/03/27 03:13:35;;;;;;;18.47;11.07;;;7.40;99.90;;;;;;5055971;28;20220;-64
2023/03/27 03:16:26;;;;;;;16.17;10.80;;;7.20;99.90;;;;;;5065638;28;20231;-62
2023/03/27 03:19:14;;;;;;;15.87;10.67;;;7.20;99.90;;;;;;5065066;28;20544;-65
2023/03/27 03:22:03;;;;;;;14.77;10.47;;;7.30;99.90;;;;;;5059838;28;20295;-65
2023/03/27 03:24:56;;;;;;;15.73;10.47;;;7.40;99.90;;;;;;5064337;28;20234;-66
2023/03/27 03:27:48;;;;;;;13.83;10.70;;;7.40;99.90;;;;;;5066037;28;20225;-65
2023/03/27 03:30:40;;;;;;;17.30;10.80;;;7.30;99.90;;;;;;5055952;28;20707;-66
2023/03/27 03:33:33;;;;;;;15.77;11.20;;;7.30;99.90;;;;;;5050331;28;20228;-66
2023/03/27 03:36:22;;;;;;;18.80;10.97;;;7.30;99.90;;;;;;5064011;28;20369;-65
2023/03/27 03:39:11;;;;;;;19.07;10.40;;;7.40;99.90;;;;;;5055898;28;20227;-65
2023/03/27 03:42:02;;;;;;;18.37;11.70;;;7.30;99.90;;;;;;5061531;28;20263;-65
2023/03/27 03:44:51;;;;;;;16.23;11.10;;;7.40;99.90;;;;;;5050366;28;20219;-65
2023/03/27 03:47:43;;;;;;;19.83;11.43;;;7.40;99.90;;;;;;5047434;28;20219;-64
2023/03/27 03:50:32;;;;;;;17.27;10.80;;;7.30;99.90;;;;;;5060817;28;20223;-65
2023/03/27 03:53:22;;;;;;;17.53;11.13;;;7.30;99.90;;;;;;5056713;28;20226;-64
2023/03/27 03:56:11;;;;;;;15.57;10.80;;;7.40;99.90;;;;;;5054939;28;20579;-66
2023/03/27 03:59:01;;;;;;;16.47;10.20;;;7.40;99.90;;;;;;5069615;28;20649;-66
2023/03/27 04:01:52;;;;;;;17.17;11.33;;;7.40;99.90;;;;;;5063227;28;21022;-66
2023/03/27 04:04:42;;;;;;;16.53;10.90;;;7.50;99.90;;;;;;5075988;28;20649;-66
2023/03/27 04:07:34;;;;;;;17.63;11.43;;;7.50;99.90;;;;;;5054507;28;20227;-65
2023/03/27 04:10:43;;;;;;;16.70;10.43;;;7.50;99.90;;;;;;5063188;28;20254;-65
2023/03/27 04:13:43;;;;;;;16.33;10.67;;;7.30;99.90;;;;;;5052254;28;20227;-65
2023/03/27 04:16:48;;;;;;;18.90;10.30;;;7.20;99.90;;;;;;5058020;28;20263;-65
2023/03/27 04:19:45;;;;;;;16.73;10.23;;;7.20;99.90;;;;;;5041749;28;20228;-64
2023/03/27 04:22:36;;;;;;;15.10;9.57;;;7.30;99.90;;;;;;5056445;28;20269;-65
2023/03/27 04:25:29;;;;;;;12.80;9.17;;;7.20;99.90;;;;;;5066209;28;20229;-64
2023/03/27 04:28:20;;;;;;;14.97;9.97;;;7.30;99.90;;;;;;5057432;28;20290;-67
2023/03/27 04:31:17;;;;;;;13.17;8.23;;;7.30;99.90;;;;;;5064689;28;20268;-65
2023/03/27 04:34:39;;;;;;;11.97;8.73;;;7.10;99.90;;;;;;5031694;28;20227;-64
2023/03/27 04:37:49;;;;;;;15.10;7.50;;;7.20;99.90;;;;;;5058259;28;20301;-65
2023/03/27 04:40:58;;;;;;;11.87;7.67;;;7.10;99.90;;;;;;5058293;28;20238;-63
2023/03/27 04:43:46;;;;;;;13.17;8.33;;;7.10;99.90;;;;;;5067533;28;20217;-63
2023/03/27 04:46:35;;;;;;;14.33;7.93;;;7.20;99.90;;;;;;5072528;28;20223;-64
2023/03/27 04:49:29;;;;;;;12.80;8.53;;;7.20;99.90;;;;;;5053433;28;20425;-63
2023/03/27 04:52:25;;;;;;;10.87;7.70;;;7.20;99.90;;;;;;5055301;28;20217;-64
2023/03/27 04:55:13;;;;;;;13.00;7.20;;;7.20;99.90;;;;;;5054157;28;20844;-63
2023/03/27 04:58:07;;;;;;;13.80;7.40;;;7.00;99.90;;;;;;5052970;28;20230;-65
2023/03/27 05:00:57;;;;;;;13.60;7.37;;;7.00;99.90;;;;;;5063170;28;20251;-62
2023/03/27 05:04:02;;;;;;;12.27;7.60;;;7.00;99.90;;;;;;5072057;28;20598;-64
2023/03/27 05:07:10;;;;;;;16.27;7.70;;;7.10;99.90;;;;;;5060739;28;20245;-65
2023/03/27 05:10:05;;;;;;;13.70;7.30;;;7.10;99.90;;;;;;5053092;28;20636;-69
2023/03/27 05:12:56;;;;;;;11.83;7.33;;;7.10;99.90;;;;;;5052636;28;20232;-65
2023/03/27 05:15:46;;;;;;;12.47;6.73;;;7.30;99.90;;;;;;5069810;28;20242;-63
2023/03/27 05:18:37;;;;;;;11.37;6.57;;;7.30;99.90;;;;;;5054262;28;20714;-63
2023/03/27 05:21:29;;;;;;;15.00;6.27;;;7.30;99.90;;;;;;5065626;28;20543;-64
2023/03/27 05:24:18;;;;;;;10.00;6.40;;;7.50;99.90;;;;;;5060889;28;20223;-65
2023/03/27 05:27:10;;;;;;;11.57;5.43;;;7.50;99.90;;;;;;5063430;28;20253;-65
2023/03/27 05:30:04;;;;;;;9.07;6.73;;;7.50;99.90;;;;;;5070587;28;20224;-62
2023/03/27 05:32:53;;;;;;;15.63;8.87;;;7.30;99.90;;;;;;5055214;28;20264;-63
2023/03/27 05:35:49;;;;;;;11.63;5.97;;;7.30;99.90;;;;;;5054082;28;20224;-66
2023/03/27 05:38:38;;;;;;;13.13;6.23;;;7.40;99.90;;;;;;5049065;28;20251;-66
2023/03/27 05:41:34;;;;;;;15.23;6.57;;;7.50;99.90;;;;;;5054503;28;20262;-63
2023/03/27 05:44:26;;;;;;;12.93;7.43;;;7.60;99.90;;;;;;5041586;28;20214;-63
2023/03/27 05:47:15;;;;;;;15.07;6.90;;;7.70;99.90;;;;;;5063425;28;20223;-66
2023/03/27 05:50:06;;;;;;;12.90;6.53;;;7.70;99.90;;;;;;5066725;28;20778;-62
2023/03/27 05:52:56;;;;;;;12.60;5.63;;;7.60;99.90;;;;;;5044931;28;20396;-64
2023/03/27 05:55:52;;;;;;;17.73;5.47;;;7.80;99.90;;;;;;5061228;28;20573;-62
2023/03/27 05:58:58;;;;;;;11.70;5.23;;;7.70;99.90;;;;;;5064021;28;20223;-61
2023/03/27 06:01:50;;;;;;;11.13;5.57;;;7.60;99.90;;;;;;5053894;28;20216;-64
2023/03/27 06:04:45;;;;;;;6.60;4.47;;;7.70;99.90;;;;;;5044874;28;20227;-62
2023/03/27 06:07:46;;;;;;;14.73;5.57;;;7.70;99.90;;;;;;5066039;28;20310;-64
2023/03/27 06:10:36;;;;;;;9.17;5.07;;;7.60;99.90;;;;;;5054643;28;20357;-64
2023/03/27 06:13:44;;;;;;;10.07;5.30;;;7.50;99.90;;;;;;5040358;28;20223;-64
2023/03/27 06:16:37;;;;;;;8.20;5.80;;;7.50;99.90;;;;;;5049825;28;20228;-67
2023/03/27 06:19:36;;;;;;;13.67;6.40;;;7.60;99.90;;;;;;5057871;28;20298;-67
2023/03/27 06:22:25;;;;;;;14.57;7.73;;;7.90;99.90;;;;;;5048989;28;20223;-64
2023/03/27 06:25:15;;;;;;;12.87;7.53;;;7.90;99.90;;;;;;5057612;28;20294;-66
2023/03/27 06:28:08;;;;;;;12.83;8.33;;;7.80;99.90;;;;;;5053962;28;20223;-65
2023/03/27 06:31:08;;;;;;;18.90;8.57;;;7.70;99.90;;;;;;5057634;28;20221;-66
2023/03/27 06:34:03;;;;;;;17.83;11.30;;;7.90;99.90;;;;;;5055537;28;20224;-67
2023/03/27 06:37:04;;;;;;;36.10;11.90;;;8.00;99.90;;;;;;5055404;28;20361;-69
2023/03/27 06:40:00;;;;;;;15.37;11.27;;;8.00;99.90;;;;;;5041406;28;20246;-66
2023/03/27 06:42:51;;;;;;;26.63;14.43;;;7.90;99.90;;;;;;5052394;28;20228;-66
2023/03/27 06:45:47;;;;;;;22.07;14.97;;;8.00;99.90;;;;;;5060309;28;20837;-67
2023/03/27 06:48:39;;;;;;;21.93;14.17;;;7.90;99.90;;;;;;5069282;28;20211;-67
2023/03/27 06:51:29;;;;;;;17.43;11.83;;;7.80;99.90;;;;;;5058108;28;20214;-67
2023/03/27 06:54:24;;;;;;;19.70;11.23;;;8.00;99.90;;;;;;5052953;28;20218;-68
2023/03/27 06:57:15;;;;;;;17.17;11.47;;;8.10;99.90;;;;;;5077413;28;20217;-67
2023/03/27 07:00:12;;;;;;;33.03;19.23;;;8.10;99.90;;;;;;5072530;28;20218;-68
2023/03/27 07:03:21;;;;;;;22.47;15.17;;;8.10;99.90;;;;;;5063466;28;20292;-67
2023/03/27 07:06:19;;;;;;;18.97;10.70;;;8.30;99.90;;;;;;5063497;28;20289;-66
2023/03/27 07:09:15;;;;;;;17.73;9.75;;;8.20;99.90;;;;;;5064017;28;20222;-67
2023/03/27 07:12:17;;;;;;;14.27;9.43;;;8.20;99.90;;;;;;5058388;28;20226;-67
2023/03/27 07:15:09;;;;;;;18.55;10.40;;;8.10;99.90;;;;;;5060148;28;20258;-67
2023/03/27 07:17:59;;;;;;;18.50;9.07;;;8.40;99.90;;;;;;5055689;28;20219;-66
2023/03/27 07:22:38;;;;;;;17.67;10.80;;;8.20;99.90;;;;;;5057360;27;20603;-65
2023/03/27 07:25:36;;;;;;;17.97;8.20;;;8.60;99.90;;;;;;5036885;28;20305;-65
2023/03/27 07:28:32;;;;;;;15.47;7.73;;;8.70;99.90;;;;;;5024316;28;20232;-64
2023/03/27 07:31:29;;;;;;;13.23;7.10;;;9.20;99.90;;;;;;5041458;28;20236;-66
2023/03/27 07:34:38;;;;;;;15.40;7.18;;;9.50;99.90;;;;;;5049131;28;20859;-66
2023/03/27 07:37:30;;;;;;;16.58;6.85;;;10.10;99.90;;;;;;5050938;28;20654;-66
2023/03/27 07:40:40;;;;;;;20.25;6.72;;;10.30;99.90;;;;;;5037387;28;20390;-65
2023/03/27 07:44:01;;;;;;;12.45;6.00;;;10.10;99.90;;;;;;5016931;28;20224;-65
2023/03/27 07:47:05;;;;;;;13.18;5.55;;;9.50;99.90;;;;;;5061175;28;20223;-64
2023/03/27 07:49:55;;;;;;;13.90;5.32;;;9.40;99.90;;;;;;5070552;28;20231;-65
2023/03/27 07:52:45;;;;;;;23.98;12.60;;;9.50;99.90;;;;;;5079537;28;20698;-65
2023/03/27 07:55:36;;;;;;;11.52;6.20;;;9.30;99.90;;;;;;5053051;28;20231;-63
2023/03/27 07:58:28;;;;;;;13.48;6.10;;;9.20;99.90;;;;;;5062161;28;20228;-64
2023/03/27 08:01:18;;;;;;;8.90;4.93;;;9.10;99.90;;;;;;5035587;28;20314;-65
2023/03/27 08:04:08;;;;;;;11.48;4.70;;;9.10;99.90;;;;;;5048425;28;20334;-65
2023/03/27 08:07:00;;;;;;;15.27;6.22;;;9.20;99.90;;;;;;5048650;28;20323;-67
2023/03/27 08:09:52;;;;;;;14.15;5.85;;;9.50;99.90;;;;;;5059476;28;20216;-67
2023/03/27 08:12:42;;;;;;;15.85;5.75;;;9.70;99.90;;;;;;5071832;28;20277;-67
2023/03/27 08:15:32;;;;;;;15.80;5.20;;;9.60;99.90;;;;;;5052489;28;20226;-67
2023/03/27 08:18:22;;;;;;;10.95;4.70;;;9.80;99.90;;;;;;5057370;28;20224;-64
2023/03/27 08:21:12;;;;;;;11.23;4.88;;;9.80;99.90;;;;;;5027479;28;20572;-66
2023/03/27 08:24:03;;;;;;;8.15;4.50;;;9.70;99.90;;;;;;5059009;28;20243;-68
2023/03/27 08:26:55;;;;;;;17.67;6.20;;;9.70;99.90;;;;;;5053382;28;20357;-68
2023/03/27 08:29:44;;;;;;;14.95;5.00;;;9.60;99.90;;;;;;5081853;28;20234;-66
2023/03/27 08:32:35;;;;;;;13.20;4.70;;;9.60;99.90;;;;;;5057967;28;20318;-65
2023/03/27 08:35:28;;;;;;;8.73;4.03;;;9.70;99.90;;;;;;5034539;28;20228;-67
2023/03/27 08:38:17;;;;;;;8.77;3.58;;;9.80;99.90;;;;;;5019667;28;20293;-66
2023/03/27 08:41:37;;;;;;;7.90;4.13;;;9.90;99.90;;;;;;5042367;28;20282;-64
2023/03/27 08:44:47;;;;;;;10.05;4.07;;;10.00;99.90;;;;;;5036205;28;20227;-67
2023/03/27 08:47:44;;;;;;;14.23;4.40;;;9.80;99.90;;;;;;5047886;28;20312;-68
2023/03/27 08:50:46;;;;;;;8.70;4.28;;;9.80;99.90;;;;;;5048809;28;20944;-66
2023/03/27 08:53:47;;;;;;;9.35;4.20;;;9.90;99.90;;;;;;5026793;28;20232;-66
2023/03/27 08:56:38;;;;;;;10.38;4.50;;;9.30;99.90;;;;;;5039966;28;20247;-66
2023/03/27 08:59:31;;;;;;;9.70;3.67;;;9.40;99.90;;;;;;5038129;28;20915;-65
2023/03/27 09:02:29;;;;;;;6.88;3.00;;;9.50;99.90;;;;;;5050653;28;20592;-65
2023/03/27 09:05:30;;;;;;;5.68;2.60;;;9.40;99.90;;;;;;5039693;28;20224;-66
2023/03/27 09:08:32;;;;;;;9.35;3.50;;;9.50;99.90;;;;;;5048330;28;20220;-65
2023/03/27 09:11:33;;;;;;;9.18;2.90;;;9.40;99.90;;;;;;5033581;28;21005;-65
2023/03/27 09:14:31;;;;;;;7.43;2.92;;;9.40;99.90;;;;;;5039954;28;20489;-66
2023/03/27 09:17:23;;;;;;;5.43;2.60;;;9.80;99.90;;;;;;5028834;28;20271;-66
2023/03/27 09:20:24;;;;;;;7.78;2.85;;;9.70;99.90;;;;;;5023310;28;20215;-65
2023/03/27 09:23:19;;;;;;;7.45;2.97;;;9.50;99.90;;;;;;5037706;28;20369;-66
2023/03/27 09:26:34;;;;;;;5.88;2.83;;;9.20;99.90;;;;;;5050873;28;20293;-66
2023/03/27 09:29:30;;;;;;;4.20;2.60;;;9.30;99.90;;;;;;5055198;28;21016;-67
2023/03/27 09:32:55;;;;;;;5.30;2.83;;;9.20;99.90;;;;;;5055053;28;20588;-65
2023/03/27 09:35:47;;;;;;;10.73;2.97;;;9.00;99.90;;;;;;5051739;28;20313;-65
2023/03/27 09:38:40;;;;;;;8.15;2.78;;;9.30;99.90;;;;;;5029935;28;20606;-65
2023/03/27 09:41:42;;;;;;;6.35;2.78;;;9.30;99.90;;;;;;5037024;28;20216;-66
2023/03/27 09:44:36;;;;;;;7.57;2.97;;;9.30;99.90;;;;;;5050466;28;20235;-65
2023/03/27 09:47:31;;;;;;;8.20;2.75;;;9.30;99.90;;;;;;5055097;28;20235;-65
2023/03/27 09:50:29;;;;;;;5.43;2.85;;;9.70;99.90;;;;;;5056450;28;20650;-66
2023/03/27 09:53:34;;;;;;;5.82;2.72;;;9.30;99.90;;;;;;5049342;28;20896;-65
2023/03/27 09:56:28;;;;;;;7.70;3.20;;;9.30;99.90;;;;;;5035184;28;20225;-65
2023/03/27 09:59:24;;;;;;;6.78;3.00;;;9.00;99.90;;;;;;5040467;28;20270;-65
2023/03/27 10:02:20;;;;;;;7.03;3.08;;;8.90;99.90;;;;;;5033026;28;20233;-66
2023/03/27 10:05:17;;;;;;;5.78;2.83;;;9.00;99.90;;;;;;5033050;28;20220;-71
2023/03/27 10:08:37;;;;;;;12.27;3.00;;;9.30;99.90;;;;;;5045245;28;20220;-67
2023/03/27 10:11:48;;;;;;;6.80;3.22;;;9.30;99.90;;;;;;5050860;28;20784;-66
2023/03/27 10:14:47;;;;;;;8.82;2.92;;;9.30;99.90;;;;;;5037180;28;20224;-65
2023/03/27 10:17:49;;;;;;;7.22;2.80;;;9.20;99.90;;;;;;5039094;28;20234;-66
2023/03/27 10:20:37;;;;;;;5.70;2.40;;;9.30;99.90;;;;;;5056171;28;20231;-65
2023/03/27 10:23:28;;;;;;;4.88;3.05;;;9.10;99.90;;;;;;5050554;28;20916;-63
2023/03/27 10:26:20;;;;;;;6.90;2.60;;;9.20;99.90;;;;;;5053207;28;20219;-64
2023/03/27 10:29:22;;;;;;;5.75;3.45;;;9.10;99.90;;;;;;5049639;28;20940;-65
2023/03/27 10:32:11;;;;;;;5.18;2.53;;;9.10;99.90;;;;;;5041035;28;20308;-66
2023/03/27 10:35:29;;;;;;;6.75;3.47;;;9.20;99.90;;;;;;5068401;28;20373;-63
2023/03/27 10:38:41;;;;;;;7.72;2.88;;;9.20;99.90;;;;;;5031425;28;20248;-67
2023/03/27 10:41:41;;;;;;;4.30;2.42;;;9.20;99.90;;;;;;5029005;28;20256;-68
2023/03/27 10:44:32;;;;;;;5.68;2.35;;;9.10;99.90;;;;;;5051244;28;20224;-65
2023/03/27 10:47:23;;;;;;;4.00;2.20;;;9.10;99.90;;;;;;5022005;28;20343;-65
2023/03/27 10:50:17;;;;;;;5.63;2.28;;;8.90;99.90;;;;;;5035069;28;20212;-65
2023/03/27 10:53:15;;;;;;;6.82;2.70;;;9.00;99.90;;;;;;5041871;28;20249;-65
2023/03/27 10:56:25;;;;;;;5.95;2.30;;;9.10;99.90;;;;;;5036263;28;21076;-65
2023/03/27 10:59:20;;;;;;;5.88;2.20;;;9.10;99.90;;;;;;5032570;28;20221;-66
2023/03/27 11:02:40;;;;;;;5.13;2.30;;;9.20;99.90;;;;;;5038791;28;20221;-64
2023/03/27 11:05:32;;;;;;;4.63;2.10;;;9.40;99.90;;;;;;5046031;28;20231;-63
2023/03/27 11:08:35;;;;;;;10.00;2.80;;;9.10;99.90;;;;;;5051648;28;20228;-65
2023/03/27 11:11:29;;;;;;;4.53;2.45;;;9.40;99.90;;;;;;5041081;28;20575;-64
2023/03/27 11:14:27;;;;;;;5.90;2.47;;;9.70;99.90;;;;;;5064959;28;20224;-64
2023/03/27 11:17:22;;;;;;;6.53;2.47;;;9.70;99.90;;;;;;5033414;28;20216;-65
2023/03/27 11:20:42;;;;;;;4.00;2.55;;;9.70;99.90;;;;;;5054171;28;21067;-67
2023/03/27 11:23:45;;;;;;;5.13;2.50;;;9.40;99.90;;;;;;5049796;28;20281;-65
2023/03/27 11:26:46;;;;;;;4.32;2.60;;;9.30;99.90;;;;;;5055169;28;20734;-65
2023/03/27 11:29:49;;;;;;;4.50;2.72;;;9.40;99.90;;;;;;5033008;28;20212;-65
2023/03/27 11:32:44;;;;;;;6.63;3.10;;;9.40;99.90;;;;;;5051668;28;20349;-65
2023/03/27 11:35:38;;;;;;;13.25;3.03;;;9.40;99.90;;;;;;5022706;28;20221;-66
2023/03/27 11:38:51;;;;;;;7.70;2.30;;;9.30;99.90;;;;;;5030754;28;20307;-65
2023/03/27 11:41:40;;;;;;;5.93;2.47;;;9.20;99.90;;;;;;5044033;28;20224;-68
2023/03/27 11:44:29;;;;;;;19.75;4.13;;;9.20;99.90;;;;;;5036174;28;20228;-65
2023/03/27 11:47:49;;;;;;;12.90;2.47;;;9.10;99.90;;;;;;5057180;28;20704;-66
2023/03/27 11:50:47;;;;;;;5.95;2.38;;;9.60;99.90;;;;;;5027458;28;20814;-66
2023/03/27 11:53:56;;;;;;;40.47;4.57;;;9.70;99.90;;;;;;5037332;28;20233;-65
2023/03/27 11:56:56;;;;;;;14.48;3.55;;;9.30;99.90;;;;;;5033623;28;20213;-64
2023/03/27 12:00:20;;;;;;;9.32;3.00;;;9.20;99.90;;;;;;5040803;28;20212;-65
2023/03/27 12:03:51;;;;;;;6.82;2.65;;;9.20;99.90;;;;;;5048935;28;20542;-63
2023/03/27 12:06:57;;;;;;;8.45;2.53;;;9.10;99.90;;;;;;5012486;28;20219;-64
2023/03/27 12:10:12;;;;;;;4.63;1.95;;;9.60;99.90;;;;;;5049313;28;20229;-64
2023/03/27 12:13:48;;;;;;;6.20;2.45;;;9.70;99.90;;;;;;5053506;28;20288;-63
2023/03/27 12:17:29;;;;;;;12.15;2.55;;;9.40;99.90;;;;;;5050695;28;20234;-65
2023/03/27 12:20:55;;;;;;;5.85;2.33;;;9.40;99.90;;;;;;5053744;28;20213;-67
2023/03/27 12:24:03;;;;;;;5.00;2.72;;;9.60;99.90;;;;;;5046317;28;20314;-65
2023/03/27 12:27:40;;;;;;;3.42;2.63;;;9.60;99.90;;;;;;5053928;28;20229;-65
2023/03/27 12:30:57;;;;;;;8.80;2.80;;;9.60;99.90;;;;;;5030585;28;20285;-66
2023/03/27 12:33:55;;;;;;;3.67;2.50;;;9.60;99.90;;;;;;5034997;28;20225;-63
2023/03/27 12:36:47;;;;;;;3.88;2.30;;;9.10;99.90;;;;;;5054108;28;20230;-66
2023/03/27 12:39:45;;;;;;;8.55;2.63;;;9.30;99.90;;;;;;5040972;28;20268;-66
2023/03/27 12:42:50;;;;;;;3.42;2.00;;;9.30;99.90;;;;;;5067457;28;20656;-67
2023/03/27 12:46:05;;;;;;;2.85;1.90;;;9.10;99.90;;;;;;5026881;28;20374;-66
2023/03/27 12:49:00;;;;;;;4.85;2.47;;;9.30;99.90;;;;;;5059251;28;20261;-68
2023/03/27 12:52:04;;;;;;;4.68;2.80;;;9.60;99.90;;;;;;5023357;28;20882;-66
2023/03/27 12:55:32;;;;;;;9.68;2.30;;;9.60;99.90;;;;;;5055064;28;20225;-66
2023/03/27 12:58:33;;;;;;;7.18;2.45;;;9.00;99.90;;;;;;5037746;28;20233;-66
2023/03/27 13:01:51;;;;;;;4.55;2.33;;;9.10;99.90;;;;;;5054705;28;20354;-66
2023/03/27 13:04:58;;;;;;;4.68;2.22;;;9.30;99.90;;;;;;5047064;28;20248;-66
2023/03/27 13:07:56;;;;;;;2.97;2.00;;;9.00;99.90;;;;;;5034310;28;20224;-67
2023/03/27 13:11:21;;;;;;;4.53;2.30;;;9.10;99.90;;;;;;5039219;28;20232;-66
2023/03/27 13:14:52;;;;;;;3.58;2.38;;;9.30;99.90;;;;;;5053198;28;20223;-66
2023/03/27 13:18:03;;;;;;;4.47;2.45;;;9.60;99.90;;;;;;5050445;28;20228;-67
2023/03/27 13:21:09;;;;;;;5.00;2.95;;;9.50;99.90;;;;;;5034821;28;20232;-67
2023/03/27 13:24:18;;;;;;;3.30;2.20;;;9.40;99.90;;;;;;5057797;28;20315;-70
2023/03/27 13:27:24;;;;;;;3.42;2.17;;;9.40;99.90;;;;;;5051853;28;20821;-68
2023/03/27 13:30:44;;;;;;;3.67;2.00;;;9.50;99.90;;;;;;5046430;28;20922;-68
2023/03/27 13:34:11;;;;;;;4.00;2.38;;;9.40;99.90;;;;;;5049432;28;20220;-71
2023/03/27 13:37:40;;;;;;;3.83;2.20;;;9.50;99.90;;;;;;5015877;28;20443;-68
2023/03/27 13:40:33;;;;;;;2.78;1.95;;;9.10;99.90;;;;;;5037769;28;20224;-66
2023/03/27 13:43:37;;;;;;;4.57;2.15;;;9.10;99.90;;;;;;5033778;28;20277;-66
2023/03/27 13:46:38;;;;;;;2.65;1.95;;;9.10;99.90;;;;;;5020870;28;20266;-66
2023/03/27 13:49:58;;;;;;;5.50;2.70;;;8.90;99.90;;;;;;5032322;28;20734;-68
2023/03/27 13:53:11;;;;;;;5.07;2.33;;;9.00;99.90;;;;;;5054288;28;20231;-67
2023/03/27 13:56:55;;;;;;;5.80;2.28;;;9.00;99.90;;;;;;5044072;28;20217;-68
2023/03/27 14:00:30;;;;;;;4.60;2.35;;;9.10;99.90;;;;;;5032667;28;21058;-67
2023/03/27 14:03:56;;;;;;;3.05;2.17;;;9.00;99.90;;;;;;5042868;28;20220;-66
2023/03/27 14:07:18;;;;;;;4.50;2.42;;;8.70;99.90;;;;;;5019415;28;20213;-67
2023/03/27 14:10:40;;;;;;;6.13;2.67;;;8.70;99.90;;;;;;5023495;28;20212;-67
2023/03/27 14:13:46;;;;;;;5.80;2.20;;;8.70;99.90;;;;;;5037158;28;20283;-66
2023/03/27 14:17:06;;;;;;;3.03;2.15;;;8.60;99.90;;;;;;5054009;28;20228;-67
2023/03/27 14:20:23;;;;;;;3.88;2.45;;;8.60;99.90;;;;;;5052161;28;20231;-67
2023/03/27 14:23:18;;;;;;;6.07;2.00;;;8.60;99.90;;;;;;5042237;28;20235;-67
2023/03/27 14:26:28;;;;;;;3.45;2.30;;;8.50;99.90;;;;;;5038081;28;20470;-67
2023/03/27 14:29:20;;;;;;;6.25;1.98;;;8.60;99.90;;;;;;5021540;28;20260;-67
2023/03/27 14:32:16;;;;;;;10.05;2.47;;;8.50;99.90;;;;;;5033536;28;20683;-66
2023/03/27 14:35:39;;;;;;;3.88;2.17;;;8.30;99.90;;;;;;5067819;28;20231;-69
2023/03/27 14:38:32;;;;;;;7.68;2.25;;;8.50;99.90;;;;;;5071657;28;20683;-67
2023/03/27 14:41:24;;;;;;;2.67;2.30;;;8.30;99.90;;;;;;5042837;28;20254;-65
2023/03/27 14:44:19;;;;;;;3.73;1.60;;;8.10;99.90;;;;;;5068978;28;20673;-66
2023/03/27 14:47:13;;;;;;;1.92;1.45;;;7.80;99.90;;;;;;5038402;28;20224;-66
2023/03/27 14:50:05;;;;;;;1.35;1.25;;;7.90;99.90;;;;;;5045135;28;20331;-66
2023/03/27 14:53:02;;;;;;;2.20;1.50;;;7.90;99.90;;;;;;5041294;28;20228;-66
2023/03/27 14:56:01;;;;;;;3.53;1.30;;;8.00;99.90;;;;;;5028090;28;20221;-67
2023/03/27 14:59:13;;;;;;;1.80;1.50;;;8.00;99.90;;;;;;5039018;28;20474;-67
2023/03/27 15:02:16;;;;;;;4.60;1.60;;;7.90;99.90;;;;;;5024530;28;20299;-66
2023/03/27 15:05:11;;;;;;;4.95;1.63;;;8.00;99.90;;;;;;5052036;28;20225;-64
2023/03/27 15:08:03;;;;;;;1.90;1.40;;;7.30;99.90;;;;;;5053352;28;20227;-67
2023/03/27 15:11:17;;;;;;;3.47;1.60;;;7.20;99.90;;;;;;5057283;28;20231;-67
2023/03/27 15:14:24;;;;;;;4.73;1.77;;;6.70;99.90;;;;;;5042194;28;20322;-66
2023/03/27 15:17:16;;;;;;;2.10;1.43;;;6.70;99.90;;;;;;5055540;28;20310;-66
2023/03/27 15:20:13;;;;;;;3.47;1.50;;;6.90;99.90;;;;;;5054412;28;20948;-65
2023/03/27 15:23:08;;;;;;;2.97;1.63;;;6.60;99.90;;;;;;5043799;28;20227;-66
2023/03/27 15:26:01;;;;;;;4.10;1.67;;;6.40;99.90;;;;;;5048146;28;20705;-68
2023/03/27 15:29:02;;;;;;;2.53;1.40;;;6.50;99.90;;;;;;5055179;28;20279;-66
2023/03/27 15:31:53;;;;;;;2.37;1.30;;;6.50;99.90;;;;;;5052041;28;20603;-66
2023/03/27 15:34:46;;;;;;;3.73;2.47;;;6.50;99.90;;;;;;5045968;28;20277;-67
2023/03/27 15:37:36;;;;;;;2.50;1.43;;;6.00;99.90;;;;;;5044545;28;20615;-66